createdAt,value
2022-10-01T00:00:26.342Z,966.53
2022-10-01T00:01:26.370Z,966.56
2022-10-01T00:02:26.330Z,966.48
2022-10-01T00:03:26.289Z,966.49
2022-10-01T00:04:26.291Z,966.42
2022-10-01T00:05:26.311Z,966.40
2022-10-01T00:06:26.269Z,966.47
2022-10-01T00:07:26.256Z,966.42
2022-10-01T00:08:26.268Z,966.42
2022-10-01T00:09:26.232Z,966.36
2022-10-01T00:10:26.252Z,966.39
2022-10-01T00:11:26.216Z,966.38
2022-10-01T00:12:26.258Z,966.36
2022-10-01T00:13:26.206Z,966.34
2022-10-01T00:14:26.174Z,966.29
2022-10-01T00:15:26.190Z,966.28
2022-10-01T00:16:26.202Z,966.23
2022-10-01T00:17:26.150Z,966.32
2022-10-01T00:18:26.142Z,966.26
2022-10-01T00:19:26.124Z,966.27
2022-10-01T00:20:27.137Z,966.27
2022-10-01T00:21:26.133Z,966.27
2022-10-01T00:22:26.096Z,966.27
2022-10-01T00:23:26.102Z,966.21
2022-10-01T00:24:26.085Z,966.15
2022-10-01T00:25:26.080Z,966.17
2022-10-01T00:26:26.100Z,966.20
2022-10-01T00:27:26.026Z,966.06
2022-10-01T00:28:26.092Z,966.14
2022-10-01T00:29:26.022Z,966.16
2022-10-01T00:30:25.993Z,966.11
2022-10-01T00:31:26.089Z,966.17
2022-10-01T00:32:26.031Z,966.03
2022-10-01T00:33:25.953Z,966.13
2022-10-01T00:34:25.946Z,966.14
2022-10-01T00:35:25.954Z,966.01
2022-10-01T00:36:25.921Z,966.05
2022-10-01T00:37:25.928Z,966.07
2022-10-01T00:38:25.909Z,966.08
2022-10-01T00:39:25.902Z,966.03
2022-10-01T00:40:25.881Z,966.02
2022-10-01T00:41:25.890Z,966.08
2022-10-01T00:42:25.894Z,966.02
2022-10-01T00:43:25.847Z,966.08
2022-10-01T00:44:25.841Z,966.00
2022-10-01T00:45:25.827Z,965.97
2022-10-01T00:46:25.816Z,965.98
2022-10-01T00:47:25.830Z,965.90
2022-10-01T00:48:25.789Z,965.99
2022-10-01T00:49:25.762Z,965.94
2022-10-01T00:50:25.784Z,965.94
2022-10-01T00:51:26.744Z,965.94
2022-10-01T00:52:25.740Z,965.96
2022-10-01T00:53:25.817Z,965.89
2022-10-01T00:54:25.722Z,965.82
2022-10-01T00:55:25.712Z,965.90
2022-10-01T00:56:25.706Z,965.92
2022-10-01T00:57:25.687Z,965.83
2022-10-01T00:58:25.715Z,965.89
2022-10-01T00:59:25.676Z,965.88
2022-10-01T01:00:25.657Z,965.80
2022-10-01T01:01:25.686Z,965.85
2022-10-01T01:02:25.725Z,965.75
2022-10-01T01:03:25.608Z,965.80
2022-10-01T01:04:25.638Z,965.76
2022-10-01T01:05:25.620Z,965.73
2022-10-01T01:06:25.578Z,965.76
2022-10-01T01:07:25.591Z,965.71
2022-10-01T01:08:25.579Z,965.74
2022-10-01T01:09:25.592Z,965.76
2022-10-01T01:10:25.594Z,965.75
2022-10-01T01:11:25.543Z,965.78
2022-10-01T01:12:25.524Z,965.70
2022-10-01T01:13:25.522Z,965.74
2022-10-01T01:14:25.541Z,965.67
2022-10-01T01:15:25.507Z,965.75
2022-10-01T01:16:25.513Z,965.71
2022-10-01T01:17:25.468Z,965.73
2022-10-01T01:18:25.458Z,965.72
2022-10-01T01:19:25.462Z,965.65
2022-10-01T01:20:25.460Z,965.66
2022-10-01T01:21:25.429Z,965.67
2022-10-01T01:22:25.407Z,965.67
2022-10-01T01:23:25.398Z,965.59
2022-10-01T01:24:25.391Z,965.66
2022-10-01T01:25:25.529Z,965.61
2022-10-01T01:26:25.356Z,965.61
2022-10-01T01:27:25.707Z,965.59
2022-10-01T01:28:25.391Z,965.61
2022-10-01T01:29:25.331Z,965.64
2022-10-01T01:30:25.363Z,965.65
2022-10-01T01:31:25.382Z,965.59
2022-10-01T01:32:25.295Z,965.52
2022-10-01T01:33:25.292Z,965.56
2022-10-01T01:34:25.283Z,965.57
2022-10-01T01:35:25.265Z,965.57
2022-10-01T01:36:25.586Z,965.45
2022-10-01T01:37:25.262Z,965.55
2022-10-01T01:38:25.233Z,965.41
2022-10-01T01:39:25.238Z,965.41
2022-10-01T01:40:25.218Z,965.44
2022-10-01T01:41:25.241Z,965.32
2022-10-01T01:42:25.231Z,965.39
2022-10-01T01:43:25.162Z,965.32
2022-10-01T01:44:26.164Z,965.35
2022-10-01T01:45:25.145Z,965.33
2022-10-01T01:46:25.181Z,965.36
2022-10-01T01:47:25.127Z,965.33
2022-10-01T01:48:25.106Z,965.29
2022-10-01T01:49:25.114Z,965.35
2022-10-01T01:50:25.095Z,965.25
2022-10-01T01:51:25.073Z,965.28
2022-10-01T01:52:25.117Z,965.27
2022-10-01T01:53:25.053Z,965.34
2022-10-01T01:54:25.042Z,965.25
2022-10-01T01:55:25.038Z,965.35
2022-10-01T01:56:26.024Z,965.17
2022-10-01T01:57:25.044Z,965.37
2022-10-01T01:58:25.014Z,965.29
2022-10-01T01:59:25.002Z,965.33
2022-10-01T02:00:24.985Z,965.27
2022-10-01T02:01:25.034Z,965.23
2022-10-01T02:02:25.017Z,965.26
2022-10-01T02:03:24.953Z,965.23
2022-10-01T02:04:24.949Z,965.19
2022-10-01T02:05:24.933Z,965.23
2022-10-01T02:06:24.944Z,965.34
2022-10-01T02:07:24.983Z,965.19
2022-10-01T02:08:24.904Z,965.17
2022-10-01T02:09:24.894Z,965.28
2022-10-01T02:10:24.928Z,965.10
2022-10-01T02:11:24.881Z,965.14
2022-10-01T02:12:24.875Z,965.16
2022-10-01T02:13:24.884Z,965.13
2022-10-01T02:14:24.834Z,965.13
2022-10-01T02:15:24.820Z,965.18
2022-10-01T02:16:24.862Z,965.17
2022-10-01T02:17:24.803Z,965.16
2022-10-01T02:18:24.816Z,965.23
2022-10-01T02:19:24.780Z,965.16
2022-10-01T02:20:24.770Z,965.26
2022-10-01T02:21:24.743Z,965.13
2022-10-01T02:22:25.413Z,965.03
2022-10-01T02:23:24.757Z,965.08
2022-10-01T02:24:24.716Z,965.14
2022-10-01T02:25:24.712Z,965.14
2022-10-01T02:26:24.705Z,965.15
2022-10-01T02:27:24.686Z,965.14
2022-10-01T02:28:24.738Z,965.05
2022-10-01T02:29:24.659Z,965.25
2022-10-01T02:30:24.635Z,964.99
2022-10-01T02:31:25.301Z,965.29
2022-10-01T02:32:24.625Z,965.04
2022-10-01T02:33:24.649Z,965.00
2022-10-01T02:34:24.603Z,965.03
2022-10-01T02:35:24.584Z,965.09
2022-10-01T02:36:24.583Z,965.00
2022-10-01T02:37:24.569Z,965.11
2022-10-01T02:38:24.598Z,965.02
2022-10-01T02:39:24.550Z,965.05
2022-10-01T02:40:24.525Z,964.95
2022-10-01T02:41:24.516Z,964.94
2022-10-01T02:42:24.516Z,965.05
2022-10-01T02:43:24.488Z,964.94
2022-10-01T02:44:24.547Z,964.83
2022-10-01T02:45:24.488Z,964.89
2022-10-01T02:46:24.489Z,964.87
2022-10-01T02:47:24.454Z,964.83
2022-10-01T02:48:24.453Z,964.82
2022-10-01T02:49:28.583Z,964.86
2022-10-01T02:50:24.421Z,964.80
2022-10-01T02:51:24.413Z,964.69
2022-10-01T02:52:24.399Z,965.00
2022-10-01T02:53:24.382Z,964.65
2022-10-01T02:54:24.386Z,964.69
2022-10-01T02:55:24.397Z,964.68
2022-10-01T02:56:24.368Z,964.69
2022-10-01T02:57:24.372Z,964.67
2022-10-01T02:58:24.351Z,964.52
2022-10-01T02:59:24.326Z,964.52
2022-10-01T03:00:24.382Z,964.46
2022-10-01T03:01:24.365Z,964.49
2022-10-01T03:02:24.352Z,964.53
2022-10-01T03:03:24.298Z,964.52
2022-10-01T03:04:24.280Z,964.52
2022-10-01T03:05:24.301Z,964.36
2022-10-01T03:06:24.255Z,964.36
2022-10-01T03:07:24.234Z,964.37
2022-10-01T03:08:24.245Z,964.38
2022-10-01T03:09:24.226Z,964.33
2022-10-01T03:10:24.207Z,964.33
2022-10-01T03:11:24.268Z,964.40
2022-10-01T03:12:25.197Z,964.32
2022-10-01T03:13:24.180Z,964.31
2022-10-01T03:14:24.195Z,964.31
2022-10-01T03:15:24.156Z,964.15
2022-10-01T03:16:24.205Z,964.23
2022-10-01T03:17:24.147Z,964.22
2022-10-01T03:18:24.122Z,964.29
2022-10-01T03:19:24.118Z,964.15
2022-10-01T03:20:24.112Z,964.15
2022-10-01T03:21:24.084Z,964.07
2022-10-01T03:22:24.125Z,964.06
2022-10-01T03:23:24.124Z,963.99
2022-10-01T03:24:24.076Z,964.19
2022-10-01T03:25:24.046Z,963.94
2022-10-01T03:26:24.031Z,963.96
2022-10-01T03:27:24.097Z,963.87
2022-10-01T03:28:24.027Z,963.89
2022-10-01T03:29:24.002Z,963.91
2022-10-01T03:30:24.010Z,963.91
2022-10-01T03:31:24.060Z,963.84
2022-10-01T03:32:24.005Z,963.76
2022-10-01T03:33:23.994Z,963.76
2022-10-01T03:34:23.950Z,963.81
2022-10-01T03:35:23.930Z,963.87
2022-10-01T03:36:23.938Z,963.89
2022-10-01T03:37:23.910Z,963.93
2022-10-01T03:38:24.931Z,963.74
2022-10-01T03:39:23.898Z,963.90
2022-10-01T03:40:23.897Z,963.77
2022-10-01T03:41:23.874Z,963.79
2022-10-01T03:42:23.864Z,963.83
2022-10-01T03:43:23.879Z,963.88
2022-10-01T03:44:23.816Z,963.81
2022-10-01T03:45:23.858Z,963.83
2022-10-01T03:46:23.806Z,963.90
2022-10-01T03:47:23.787Z,963.82
2022-10-01T03:48:23.809Z,963.72
2022-10-01T03:49:23.783Z,963.75
2022-10-01T03:50:23.754Z,963.89
2022-10-01T03:51:23.746Z,963.62
2022-10-01T03:52:23.723Z,963.65
2022-10-01T03:53:24.742Z,963.71
2022-10-01T03:54:23.700Z,963.72
2022-10-01T03:55:23.686Z,963.74
2022-10-01T03:56:23.674Z,963.77
2022-10-01T03:57:23.682Z,963.77
2022-10-01T03:58:23.667Z,963.91
2022-10-01T03:59:23.688Z,963.71
2022-10-01T04:00:23.641Z,963.79
2022-10-01T04:01:23.789Z,963.72
2022-10-01T04:02:23.722Z,963.69
2022-10-01T04:03:23.607Z,963.76
2022-10-01T04:04:23.642Z,963.80
2022-10-01T04:05:23.585Z,963.86
2022-10-01T04:06:23.575Z,963.74
2022-10-01T04:07:23.567Z,963.85
2022-10-01T04:08:24.515Z,963.72
2022-10-01T04:09:23.539Z,963.75
2022-10-01T04:10:23.559Z,963.72
2022-10-01T04:11:23.523Z,963.76
2022-10-01T04:12:23.506Z,963.73
2022-10-01T04:13:23.517Z,963.75
2022-10-01T04:14:23.488Z,963.70
2022-10-01T04:15:23.517Z,963.75
2022-10-01T04:16:23.629Z,963.65
2022-10-01T04:17:23.454Z,963.65
2022-10-01T04:18:23.442Z,963.54
2022-10-01T04:19:23.417Z,963.76
2022-10-01T04:20:23.438Z,963.62
2022-10-01T04:21:23.491Z,963.60
2022-10-01T04:22:23.396Z,963.50
2022-10-01T04:23:23.381Z,963.60
2022-10-01T04:24:23.384Z,963.64
2022-10-01T04:25:23.366Z,963.63
2022-10-01T04:26:23.373Z,963.53
2022-10-01T04:27:23.354Z,963.42
2022-10-01T04:28:23.383Z,963.54
2022-10-01T04:29:23.325Z,963.61
2022-10-01T04:30:23.319Z,963.39
2022-10-01T04:31:23.385Z,963.51
2022-10-01T04:32:23.288Z,963.45
2022-10-01T04:33:23.728Z,963.49
2022-10-01T04:34:23.283Z,963.54
2022-10-01T04:35:23.276Z,963.49
2022-10-01T04:36:23.248Z,963.42
2022-10-01T04:37:23.247Z,963.41
2022-10-01T04:38:23.230Z,963.44
2022-10-01T04:39:23.231Z,963.43
2022-10-01T04:40:23.217Z,963.35
2022-10-01T04:41:23.221Z,963.45
2022-10-01T04:42:23.200Z,963.36
2022-10-01T04:43:23.174Z,963.40
2022-10-01T04:44:23.184Z,963.31
2022-10-01T04:45:23.149Z,963.28
2022-10-01T04:46:23.213Z,963.18
2022-10-01T04:47:23.208Z,963.23
2022-10-01T04:48:23.121Z,963.26
2022-10-01T04:49:23.106Z,963.43
2022-10-01T04:50:23.103Z,963.33
2022-10-01T04:51:23.083Z,963.22
2022-10-01T04:52:23.121Z,963.18
2022-10-01T04:53:23.078Z,963.21
2022-10-01T04:54:23.056Z,963.23
2022-10-01T04:55:23.049Z,963.21
2022-10-01T04:56:23.026Z,963.24
2022-10-01T04:57:23.042Z,963.28
2022-10-01T04:58:23.019Z,963.24
2022-10-01T04:59:23.008Z,963.20
2022-10-01T05:00:22.975Z,963.18
2022-10-01T05:01:23.044Z,963.19
2022-10-01T05:02:22.986Z,963.34
2022-10-01T05:03:22.981Z,963.22
2022-10-01T05:04:22.944Z,963.30
2022-10-01T05:05:22.941Z,963.21
2022-10-01T05:06:22.907Z,963.20
2022-10-01T05:07:22.896Z,963.18
2022-10-01T05:08:22.910Z,963.17
2022-10-01T05:09:22.870Z,963.14
2022-10-01T05:10:22.868Z,963.05
2022-10-01T05:11:22.879Z,963.10
2022-10-01T05:12:24.628Z,963.05
2022-10-01T05:13:22.830Z,963.36
2022-10-01T05:14:22.864Z,963.08
2022-10-01T05:15:22.808Z,963.04
2022-10-01T05:16:23.193Z,962.99
2022-10-01T05:17:22.790Z,963.03
2022-10-01T05:18:22.781Z,963.17
2022-10-01T05:19:25.292Z,962.90
2022-10-01T05:20:22.733Z,962.98
2022-10-01T05:21:22.723Z,963.07
2022-10-01T05:22:22.723Z,963.15
2022-10-01T05:23:23.383Z,962.82
2022-10-01T05:24:24.086Z,962.87
2022-10-01T05:25:23.094Z,962.82
2022-10-01T05:26:22.731Z,962.76
2022-10-01T05:27:22.703Z,962.93
2022-10-01T05:28:24.585Z,962.89
2022-10-01T05:29:22.675Z,962.80
2022-10-01T05:30:23.511Z,962.74
2022-10-01T05:31:22.721Z,962.79
2022-10-01T05:32:22.648Z,962.79
2022-10-01T05:33:22.632Z,962.68
2022-10-01T05:34:22.603Z,962.71
2022-10-01T05:35:22.656Z,962.66
2022-10-01T05:36:22.574Z,962.73
2022-10-01T05:37:23.967Z,962.64
2022-10-01T05:38:22.596Z,962.70
2022-10-01T05:39:22.574Z,962.60
2022-10-01T05:40:22.558Z,962.57
2022-10-01T05:41:22.553Z,962.53
2022-10-01T05:42:22.539Z,962.82
2022-10-01T05:43:22.505Z,962.64
2022-10-01T05:44:22.487Z,962.70
2022-10-01T05:45:22.500Z,962.62
2022-10-01T05:46:22.485Z,962.48
2022-10-01T05:47:22.492Z,962.43
2022-10-01T05:48:22.479Z,962.38
2022-10-01T05:49:22.450Z,962.42
2022-10-01T05:50:22.646Z,962.48
2022-10-01T05:51:22.492Z,962.47
2022-10-01T05:52:22.434Z,962.45
2022-10-01T05:53:22.404Z,962.28
2022-10-01T05:54:22.411Z,962.41
2022-10-01T05:55:22.379Z,962.35
2022-10-01T05:56:22.421Z,962.26
2022-10-01T05:57:22.360Z,962.41
2022-10-01T05:58:22.361Z,962.21
2022-10-01T05:59:22.347Z,962.15
2022-10-01T06:00:22.321Z,962.08
2022-10-01T06:01:22.313Z,962.16
2022-10-01T06:02:22.526Z,962.38
2022-10-01T06:03:22.353Z,962.30
2022-10-01T06:04:22.297Z,961.95
2022-10-01T06:05:22.289Z,962.17
2022-10-01T06:06:22.261Z,962.15
2022-10-01T06:07:22.340Z,962.12
2022-10-01T06:08:22.243Z,962.04
2022-10-01T06:09:22.216Z,961.86
2022-10-01T06:10:22.218Z,962.03
2022-10-01T06:11:22.870Z,961.97
2022-10-01T06:12:23.215Z,961.98
2022-10-01T06:13:22.214Z,961.97
2022-10-01T06:14:22.176Z,961.86
2022-10-01T06:15:22.165Z,962.16
2022-10-01T06:16:22.254Z,961.86
2022-10-01T06:17:22.136Z,961.78
2022-10-01T06:18:22.154Z,961.71
2022-10-01T06:19:22.133Z,962.07
2022-10-01T06:20:22.704Z,961.65
2022-10-01T06:21:22.106Z,962.25
2022-10-01T06:22:22.144Z,961.51
2022-10-01T06:23:22.102Z,961.57
2022-10-01T06:24:22.303Z,961.46
2022-10-01T06:25:22.485Z,961.45
2022-10-01T06:26:22.054Z,961.61
2022-10-01T06:27:22.050Z,961.61
2022-10-01T06:28:22.203Z,961.72
2022-10-01T06:29:22.014Z,961.66
2022-10-01T06:30:22.015Z,961.98
2022-10-01T06:31:22.045Z,961.68
2022-10-01T06:32:21.979Z,961.73
2022-10-01T06:33:22.006Z,962.07
2022-10-01T06:34:22.051Z,961.65
2022-10-01T06:35:21.944Z,961.74
2022-10-01T06:36:21.933Z,961.74
2022-10-01T06:37:21.936Z,961.58
2022-10-01T06:38:21.962Z,961.66
2022-10-01T06:39:21.932Z,961.66
2022-10-01T06:40:21.907Z,961.66
2022-10-01T06:41:21.876Z,961.75
2022-10-01T06:42:21.881Z,961.80
2022-10-01T06:43:21.901Z,961.63
2022-10-01T06:44:21.891Z,961.73
2022-10-01T06:45:21.848Z,961.74
2022-10-01T06:46:21.899Z,961.80
2022-10-01T06:47:21.833Z,961.65
2022-10-01T06:48:23.032Z,961.68
2022-10-01T06:49:21.834Z,961.60
2022-10-01T06:50:21.889Z,961.76
2022-10-01T06:51:21.782Z,961.74
2022-10-01T06:52:21.757Z,961.96
2022-10-01T06:53:21.774Z,961.92
2022-10-01T06:54:21.771Z,961.96
2022-10-01T06:55:21.723Z,961.87
2022-10-01T06:56:21.711Z,962.12
2022-10-01T06:57:22.716Z,962.38
2022-10-01T06:58:21.721Z,961.90
2022-10-01T06:59:21.693Z,961.88
2022-10-01T07:00:21.661Z,961.98
2022-10-01T07:01:21.691Z,961.88
2022-10-01T07:02:21.746Z,961.88
2022-10-01T07:03:21.650Z,961.78
2022-10-01T07:04:21.694Z,961.72
2022-10-01T07:05:21.629Z,961.67
2022-10-01T07:06:21.637Z,961.74
2022-10-01T07:07:21.580Z,961.76
2022-10-01T07:08:21.623Z,961.74
2022-10-01T07:09:21.603Z,961.70
2022-10-01T07:10:21.562Z,961.59
2022-10-01T07:11:21.561Z,961.58
2022-10-01T07:12:21.529Z,961.56
2022-10-01T07:13:21.552Z,961.55
2022-10-01T07:14:21.567Z,961.54
2022-10-01T07:15:21.492Z,961.59
2022-10-01T07:16:21.524Z,961.65
2022-10-01T07:17:21.477Z,961.78
2022-10-01T07:18:21.491Z,961.64
2022-10-01T07:19:21.491Z,961.61
2022-10-01T07:20:21.437Z,961.63
2022-10-01T07:21:21.437Z,961.43
2022-10-01T07:22:21.443Z,961.70
2022-10-01T07:23:21.431Z,961.57
2022-10-01T07:24:21.416Z,961.62
2022-10-01T07:25:21.404Z,961.68
2022-10-01T07:26:21.376Z,961.60
2022-10-01T07:27:21.376Z,961.58
2022-10-01T07:28:21.455Z,961.66
2022-10-01T07:29:21.351Z,961.71
2022-10-01T07:30:21.369Z,961.58
2022-10-01T07:35:22.530Z,961.72
2022-10-01T07:36:22.473Z,961.70
2022-10-01T07:37:22.401Z,961.86
2022-10-01T07:38:22.441Z,961.70
2022-10-01T07:39:22.377Z,961.98
2022-10-01T07:40:22.420Z,961.78
2022-10-01T07:41:22.367Z,961.77
2022-10-01T07:42:22.347Z,961.87
2022-10-01T07:43:22.323Z,962.05
2022-10-01T07:44:22.333Z,961.85
2022-10-01T07:45:22.300Z,961.95
2022-10-01T07:46:22.407Z,961.97
2022-10-01T07:47:22.277Z,961.85
2022-10-01T07:48:22.291Z,961.87
2022-10-01T07:49:22.257Z,961.96
2022-10-01T07:50:22.251Z,961.99
2022-10-01T07:51:22.230Z,961.96
2022-10-01T07:52:33.063Z,961.88
2022-10-01T07:53:22.292Z,961.81
2022-10-01T07:54:22.261Z,961.88
2022-10-01T07:55:22.192Z,961.81
2022-10-01T07:56:22.183Z,961.92
2022-10-01T07:57:22.205Z,961.85
2022-10-01T07:58:22.167Z,961.87
2022-10-01T07:59:22.142Z,961.74
2022-10-01T08:00:22.134Z,961.77
2022-10-01T08:01:22.187Z,961.73
2022-10-01T08:02:22.197Z,961.93
2022-10-01T08:03:22.126Z,961.82
2022-10-01T08:04:22.089Z,961.90
2022-10-01T08:05:22.304Z,961.78
2022-10-01T08:06:25.613Z,961.91
2022-10-01T08:07:22.083Z,961.74
2022-10-01T08:08:22.152Z,961.88
2022-10-01T08:09:22.488Z,961.84
2022-10-01T08:10:22.191Z,961.68
2022-10-01T08:11:22.409Z,961.76
2022-10-01T08:12:21.996Z,961.76
2022-10-01T08:13:22.057Z,961.78
2022-10-01T08:14:22.002Z,961.74
2022-10-01T08:15:22.079Z,961.81
2022-10-01T08:16:22.124Z,961.97
2022-10-01T08:17:24.055Z,962.00
2022-10-01T08:18:21.922Z,961.82
2022-10-01T08:19:21.945Z,962.36
2022-10-01T08:20:22.027Z,961.95
2022-10-01T08:21:21.874Z,961.92
2022-10-01T08:22:21.872Z,961.86
2022-10-01T08:23:21.890Z,961.99
2022-10-01T08:26:21.430Z,961.98
2022-10-01T08:27:21.535Z,961.93
2022-10-01T08:28:21.391Z,962.09
2022-10-01T08:29:21.349Z,961.90
2022-10-01T08:30:21.382Z,961.97
2022-10-01T08:31:21.338Z,961.97
2022-10-01T08:32:21.313Z,962.04
2022-10-01T08:33:21.292Z,962.18
2022-10-01T08:34:21.287Z,962.20
2022-10-01T08:35:21.281Z,962.11
2022-10-01T08:36:21.264Z,962.07
2022-10-01T08:37:21.276Z,962.14
2022-10-01T08:38:21.232Z,962.02
2022-10-01T08:39:21.219Z,962.17
2022-10-01T08:40:21.231Z,962.00
2022-10-01T08:41:23.266Z,962.07
2022-10-01T08:42:21.178Z,962.07
2022-10-01T08:43:21.227Z,962.10
2022-10-01T08:44:22.289Z,962.13
2022-10-01T08:45:22.286Z,962.06
2022-10-01T08:46:22.255Z,962.16
2022-10-01T08:47:22.416Z,962.13
2022-10-01T08:48:22.296Z,962.13
2022-10-01T08:49:22.223Z,962.10
2022-10-01T08:50:22.223Z,962.08
2022-10-01T08:51:22.218Z,962.03
2022-10-01T08:52:22.193Z,961.99
2022-10-01T08:53:22.175Z,962.10
2022-10-01T08:54:22.205Z,962.10
2022-10-01T08:55:22.153Z,962.14
2022-10-01T08:56:22.149Z,962.12
2022-10-01T08:57:22.130Z,962.09
2022-10-01T08:58:22.119Z,962.16
2022-10-01T08:59:27.238Z,962.08
2022-10-01T09:00:22.107Z,962.00
2022-10-01T09:01:22.159Z,962.06
2022-10-01T09:02:22.094Z,962.15
2022-10-01T09:03:22.079Z,962.11
2022-10-01T09:04:22.123Z,962.14
2022-10-01T09:05:22.115Z,962.16
2022-10-01T09:06:22.045Z,962.17
2022-10-01T09:07:22.029Z,962.19
2022-10-01T09:08:22.027Z,962.15
2022-10-01T09:09:22.006Z,962.23
2022-10-01T09:10:22.024Z,962.25
2022-10-01T09:11:22.002Z,962.24
2022-10-01T09:12:21.969Z,962.19
2022-10-01T09:13:21.959Z,962.23
2022-10-01T09:14:22.010Z,962.24
2022-10-01T09:15:21.938Z,962.19
2022-10-01T09:16:22.050Z,962.25
2022-10-01T09:17:21.927Z,962.30
2022-10-01T09:18:21.894Z,962.32
2022-10-01T09:19:21.908Z,962.27
2022-10-01T09:20:21.888Z,962.45
2022-10-01T09:21:21.889Z,962.26
2022-10-01T09:22:21.862Z,962.25
2022-10-01T09:23:21.855Z,962.28
2022-10-01T09:24:21.836Z,962.20
2022-10-01T09:25:21.827Z,962.26
2022-10-01T09:26:25.602Z,962.29
2022-10-01T09:27:21.798Z,962.23
2022-10-01T09:28:21.854Z,962.19
2022-10-01T09:29:21.768Z,962.19
2022-10-01T09:30:21.783Z,962.22
2022-10-01T09:31:21.792Z,962.32
2022-10-01T09:32:21.770Z,962.28
2022-10-01T09:33:21.739Z,962.40
2022-10-01T09:34:21.734Z,962.25
2022-10-01T09:35:21.737Z,962.24
2022-10-01T09:36:21.709Z,962.16
2022-10-01T09:37:21.722Z,962.11
2022-10-01T09:38:21.691Z,962.19
2022-10-01T09:39:21.672Z,962.16
2022-10-01T09:40:21.664Z,962.19
2022-10-01T09:41:21.643Z,962.11
2022-10-01T09:42:21.660Z,962.09
2022-10-01T09:43:21.626Z,962.09
2022-10-01T09:44:21.611Z,962.18
2022-10-01T09:45:21.597Z,962.11
2022-10-01T09:46:21.627Z,962.14
2022-10-01T09:47:21.620Z,962.07
2022-10-01T09:48:21.587Z,962.16
2022-10-01T09:49:21.582Z,962.19
2022-10-01T09:50:21.546Z,962.17
2022-10-01T09:51:21.519Z,962.28
2022-10-01T09:52:21.595Z,962.25
2022-10-01T09:53:21.514Z,962.26
2022-10-01T09:54:21.509Z,962.28
2022-10-01T09:55:21.509Z,962.36
2022-10-01T09:56:21.496Z,962.41
2022-10-01T09:57:21.480Z,962.34
2022-10-01T09:58:21.499Z,962.28
2022-10-01T09:59:21.466Z,962.32
2022-10-01T10:00:21.456Z,962.32
2022-10-01T10:01:21.438Z,962.30
2022-10-01T10:02:21.569Z,962.40
2022-10-01T10:03:21.561Z,962.42
2022-10-01T10:04:21.402Z,962.35
2022-10-01T10:05:21.389Z,962.36
2022-10-01T10:06:21.421Z,962.41
2022-10-01T10:07:21.364Z,962.36
2022-10-01T10:08:21.355Z,962.42
2022-10-01T10:09:21.689Z,962.44
2022-10-01T10:10:25.438Z,962.51
2022-10-01T10:11:21.314Z,962.46
2022-10-01T10:12:21.349Z,962.51
2022-10-01T10:13:21.303Z,962.43
2022-10-01T10:14:33.554Z,962.53
2022-10-01T10:15:22.277Z,962.52
2022-10-01T10:16:21.344Z,962.56
2022-10-01T10:17:21.240Z,962.58
2022-10-01T10:18:23.919Z,962.49
2022-10-01T10:19:22.208Z,962.49
2022-10-01T10:20:21.240Z,962.51
2022-10-01T10:21:21.183Z,962.40
2022-10-01T10:22:21.178Z,962.51
2022-10-01T10:23:21.172Z,962.54
2022-10-01T10:24:21.156Z,962.52
2022-10-01T10:25:21.181Z,962.65
2022-10-01T10:26:21.142Z,962.41
2022-10-01T10:27:21.129Z,962.48
2022-10-01T10:28:21.172Z,962.41
2022-10-01T10:29:21.111Z,962.44
2022-10-01T10:30:21.093Z,962.48
2022-10-01T10:31:21.162Z,962.54
2022-10-01T10:32:21.064Z,962.51
2022-10-01T10:33:21.053Z,962.52
2022-10-01T10:34:21.039Z,962.50
2022-10-01T10:35:21.029Z,962.50
2022-10-01T10:36:21.036Z,962.55
2022-10-01T10:37:20.997Z,962.53
2022-10-01T10:38:21.002Z,962.53
2022-10-01T10:39:21.004Z,962.54
2022-10-01T10:40:22.756Z,962.57
2022-10-01T10:41:20.989Z,962.72
2022-10-01T10:42:20.941Z,962.57
2022-10-01T10:43:20.938Z,962.60
2022-10-01T10:44:20.947Z,962.55
2022-10-01T10:45:20.934Z,962.54
2022-10-01T10:46:20.962Z,962.53
2022-10-01T10:47:20.898Z,962.60
2022-10-01T10:48:20.872Z,962.59
2022-10-01T10:49:20.866Z,962.60
2022-10-01T10:50:20.873Z,962.59
2022-10-01T10:51:20.855Z,962.75
2022-10-01T10:52:20.832Z,962.70
2022-10-01T10:53:20.826Z,962.75
2022-10-01T10:54:20.815Z,962.74
2022-10-01T10:55:20.800Z,962.79
2022-10-01T10:56:20.823Z,962.73
2022-10-01T10:57:20.770Z,962.68
2022-10-01T10:58:20.763Z,962.81
2022-10-01T10:59:20.757Z,962.78
2022-10-01T11:00:20.744Z,962.67
2022-10-01T11:01:20.775Z,962.80
2022-10-01T11:02:20.746Z,962.64
2022-10-01T11:03:20.705Z,962.70
2022-10-01T11:04:21.373Z,962.70
2022-10-01T11:05:20.693Z,962.68
2022-10-01T11:06:20.683Z,962.67
2022-10-01T11:07:20.653Z,962.65
2022-10-01T11:08:20.660Z,962.65
2022-10-01T11:09:20.642Z,962.74
2022-10-01T11:10:20.614Z,962.64
2022-10-01T11:11:20.646Z,962.69
2022-10-01T11:12:20.597Z,962.60
2022-10-01T11:13:21.195Z,962.68
2022-10-01T11:14:23.602Z,962.74
2022-10-01T11:15:21.560Z,962.69
2022-10-01T11:16:20.633Z,962.79
2022-10-01T11:17:20.535Z,962.73
2022-10-01T11:18:20.547Z,962.70
2022-10-01T11:19:20.540Z,962.72
2022-10-01T11:20:21.168Z,962.75
2022-10-01T11:21:20.493Z,962.76
2022-10-01T11:22:20.532Z,962.80
2022-10-01T11:23:20.466Z,962.67
2022-10-01T11:24:20.477Z,962.74
2022-10-01T11:25:20.443Z,962.70
2022-10-01T11:26:20.456Z,962.73
2022-10-01T11:27:20.468Z,962.78
2022-10-01T11:28:20.482Z,962.69
2022-10-01T11:29:20.403Z,962.66
2022-10-01T11:30:20.382Z,962.72
2022-10-01T11:33:06.870Z,962.74
2022-10-01T11:34:06.773Z,962.77
2022-10-01T11:35:06.879Z,962.70
2022-10-01T11:36:06.685Z,962.79
2022-10-01T11:37:06.616Z,962.97
2022-10-01T11:38:06.629Z,962.75
2022-10-01T11:39:06.637Z,962.82
2022-10-01T11:40:06.589Z,962.87
2022-10-01T11:41:06.612Z,963.02
2022-10-01T11:42:06.542Z,962.72
2022-10-01T11:43:06.576Z,962.74
2022-10-01T11:44:06.518Z,962.77
2022-10-01T11:45:06.556Z,962.87
2022-10-01T11:46:06.581Z,962.76
2022-10-01T11:47:06.524Z,962.84
2022-10-01T11:48:06.465Z,962.89
2022-10-01T11:49:06.529Z,962.84
2022-10-01T11:50:06.443Z,962.80
2022-10-01T11:51:06.471Z,962.78
2022-10-01T11:52:06.427Z,962.71
2022-10-01T11:53:06.415Z,962.76
2022-10-01T11:54:06.438Z,962.90
2022-10-01T11:55:06.400Z,962.66
2022-10-01T11:56:06.414Z,962.71
2022-10-01T11:57:06.375Z,962.80
2022-10-01T11:58:06.391Z,962.77
2022-10-01T11:59:06.343Z,962.83
2022-10-01T12:00:06.324Z,962.73
2022-10-01T12:01:06.396Z,962.83
2022-10-01T12:02:06.351Z,962.84
2022-10-01T12:03:06.298Z,962.83
2022-10-01T12:04:06.271Z,962.95
2022-10-01T12:05:06.369Z,962.85
2022-10-01T12:06:06.245Z,962.88
2022-10-01T12:07:06.276Z,962.90
2022-10-01T12:08:06.225Z,962.88
2022-10-01T12:09:06.306Z,962.86
2022-10-01T12:10:06.206Z,962.97
2022-10-01T12:11:06.194Z,962.97
2022-10-01T12:12:06.187Z,962.96
2022-10-01T12:13:06.166Z,962.98
2022-10-01T12:14:06.193Z,962.95
2022-10-01T12:15:07.148Z,962.94
2022-10-01T12:16:06.215Z,962.87
2022-10-01T12:17:06.159Z,962.95
2022-10-01T12:18:06.114Z,963.01
2022-10-01T12:19:06.123Z,962.96
2022-10-01T12:20:06.072Z,963.03
2022-10-01T12:21:06.069Z,962.86
2022-10-01T12:22:06.068Z,962.96
2022-10-01T12:23:06.069Z,962.96
2022-10-01T12:24:06.027Z,962.93
2022-10-01T12:25:06.037Z,962.95
2022-10-01T12:26:06.027Z,963.01
2022-10-01T12:27:05.993Z,962.91
2022-10-01T12:28:06.102Z,962.99
2022-10-01T12:29:05.974Z,962.95
2022-10-01T12:30:05.966Z,962.95
2022-10-01T12:31:06.014Z,963.02
2022-10-01T12:32:05.925Z,962.88
2022-10-01T12:33:05.944Z,962.91
2022-10-01T12:34:05.905Z,962.90
2022-10-01T12:35:05.904Z,962.94
2022-10-01T12:36:05.904Z,962.92